Time;durP1;ratioP1;P1;durP2;ratioP2;P2;SDS_P1;SDS_P2;PMS_P1;PMS_P2;Temp;Humidity;BMP_temperature;BMP_pressure;BME280_temperature;BME280_humidity;BME280_pressure;Samples;Min_cycle;Max_cycle;Signal;HPM_P1;HPM_P2
2021/12/05 00:21:03;;;;;;;0.53;0.50;;;;;;;6.67;83.17;95019.00;4966059;28;20230;-70
2021/12/05 00:23:37;;;;;;;0.57;0.57;;;;;;;5.97;84.92;95025.88;4984657;28;20297;-70
2021/12/05 00:26:05;;;;;;;0.30;0.30;;;;;;;5.97;84.87;95024.09;4978851;28;20690;-70
2021/12/05 00:51:25;;;;;;;0.30;0.30;;;;;;;5.78;88.12;95037.66;5052490;28;20769;-70
2021/12/05 00:57:15;;;;;;;0.50;0.50;;;;;;;5.33;91.19;95043.88;5052503;28;20277;-71
2021/12/05 01:00:00;;;;;;;0.37;0.33;;;;;;;5.27;92.37;95044.56;5052584;28;20261;-71
2021/12/05 01:08:39;;;;;;;0.53;0.53;;;;;;;5.39;92.63;95049.19;4961131;28;20201;-70
2021/12/05 01:11:28;;;;;;;0.30;0.30;;;;;;;5.47;93.26;95041.31;5035872;28;20270;-71
2021/12/05 01:14:09;;;;;;;0.60;0.60;;;;;;;5.26;93.55;95041.13;5052288;28;20694;-72
2021/12/05 01:16:37;;;;;;;0.40;0.40;;;;;;;5.21;94.77;95051.28;5052373;28;20228;-71
2021/12/05 01:19:07;;;;;;;0.60;0.60;;;;;;;5.51;94.05;95047.78;5051822;28;20212;-71
2021/12/05 01:21:37;;;;;;;0.83;0.70;;;;;;;5.53;94.29;95054.47;5052183;28;20256;-71
2021/12/05 01:24:13;;;;;;;4.33;0.80;;;;;;;5.71;93.13;95056.78;5051921;28;20280;-71
2021/12/05 01:26:47;;;;;;;0.97;0.97;;;;;;;5.60;93.19;95058.03;5052176;28;20342;-71
2021/12/05 01:29:30;;;;;;;0.70;0.50;;;;;;;5.46;92.77;95052.75;5052038;28;20277;-71
2021/12/05 01:32:07;;;;;;;1.27;0.67;;;;;;;5.39;93.10;95054.44;5052138;28;20356;-70
2021/12/05 01:34:48;;;;;;;0.40;0.33;;;;;;;5.32;93.20;95044.84;5052013;28;20287;-71
2021/12/05 01:37:28;;;;;;;1.27;0.53;;;;;;;5.56;92.89;95051.53;5052571;28;20227;-70
2021/12/05 01:40:27;;;;;;;0.70;0.50;;;;;;;5.43;93.29;95054.91;5052235;28;20200;-71
2021/12/05 01:57:01;;;;;;;16.77;0.70;;;;;;;5.67;90.59;95048.47;5015721;28;20597;-69
2021/12/05 01:59:38;;;;;;;0.70;0.70;;;;;;;5.55;91.04;95038.66;5039124;28;20215;-69
2021/12/05 02:11:00;;;;;;;0.77;0.50;;;;;;;5.72;89.66;95030.47;5037877;28;20732;-69
2021/12/05 02:30:25;;;;;;;0.47;0.40;;;;;;;5.41;89.21;95022.91;5037468;28;20968;-68
2021/12/05 02:33:13;;;;;;;0.73;0.70;;;;;;;5.35;89.35;95013.97;5036766;28;20288;-68
2021/12/05 02:35:57;;;;;;;0.33;0.33;;;;;;;5.07;88.81;95012.88;5038011;28;20193;-68
2021/12/05 02:41:17;;;;;;;0.40;0.40;;;;;;;5.11;88.92;95015.97;5037646;28;20414;-69
2021/12/05 02:43:47;;;;;;;1.30;0.57;;;;;;;5.43;88.34;95013.09;5037153;28;20581;-69
2021/12/05 02:46:16;;;;;;;0.30;0.30;;;;;;;5.08;89.08;95013.69;5034482;28;20709;-69
2021/12/05 02:48:44;;;;;;;0.73;0.73;;;;;;;5.43;87.94;95019.13;5037452;28;20232;-68
2021/12/05 02:51:14;;;;;;;0.87;0.87;;;;;;;5.42;87.80;95014.88;5037534;28;20228;-69
2021/12/05 02:53:47;;;;;;;0.30;0.30;;;;;;;5.80;87.92;95014.75;5036731;28;20255;-69
2021/12/05 02:56:15;;;;;;;0.70;0.70;;;;;;;5.68;87.24;95017.97;5037386;28;20233;-69
2021/12/05 02:58:45;;;;;;;0.20;0.20;;;;;;;5.66;87.44;95015.50;5037220;28;20684;-69
2021/12/05 03:01:20;;;;;;;0.40;0.40;;;;;;;5.79;86.25;95017.53;5038232;28;20232;-69
2021/12/05 03:03:48;;;;;;;0.60;0.60;;;;;;;5.73;86.94;95013.81;5036448;28;20205;-70
2021/12/05 03:06:20;;;;;;;0.77;0.57;;;;;;;5.74;87.66;95012.00;5037304;28;20236;-69
2021/12/05 03:08:50;;;;;;;0.50;0.40;;;;;;;5.85;87.75;95007.19;5037645;28;20212;-68
2021/12/05 03:11:17;;;;;;;0.40;0.40;;;;;;;5.45;87.50;95006.72;5035593;28;20229;-68
2021/12/05 03:13:44;;;;;;;0.40;0.40;;;;;;;5.51;88.00;94999.00;5036342;28;20205;-69
2021/12/05 03:16:13;;;;;;;0.60;0.60;;;;;;;5.38;88.80;95004.97;5037287;28;20713;-68
2021/12/05 03:18:41;;;;;;;1.03;0.80;;;;;;;5.46;88.35;95003.13;5037133;28;20220;-69
2021/12/05 03:21:08;;;;;;;0.50;0.50;;;;;;;5.31;88.07;95002.25;5036672;28;20605;-68
2021/12/05 03:23:35;;;;;;;0.47;0.47;;;;;;;5.35;88.24;95011.38;5035903;28;20204;-68
2021/12/05 03:26:04;;;;;;;0.40;0.40;;;;;;;5.29;89.56;95012.06;5037175;28;20201;-69
2021/12/05 03:28:30;;;;;;;1.80;0.63;;;;;;;4.99;89.51;95010.31;5036428;28;20212;-68
2021/12/05 03:30:57;;;;;;;0.57;0.47;;;;;;;4.85;90.34;95016.28;5036352;28;20220;-68
2021/12/05 03:33:23;;;;;;;0.47;0.47;;;;;;;5.05;90.55;95008.81;5036237;28;20551;-69
2021/12/05 03:35:50;;;;;;;0.70;0.70;;;;;;;5.21;89.78;95012.13;5036661;28;20205;-69
2021/12/05 03:38:17;;;;;;;2.50;1.07;;;;;;;5.12;90.08;95015.78;5036449;28;20225;-69
2021/12/05 03:40:44;;;;;;;0.40;0.40;;;;;;;5.25;90.02;95026.44;5036495;28;20217;-69
2021/12/05 03:43:15;;;;;;;0.43;0.40;;;;;;;5.55;89.48;95022.97;5035911;28;20212;-69
2021/12/05 03:45:44;;;;;;;0.93;0.57;;;;;;;5.42;89.54;95021.94;5029192;28;20201;-69
2021/12/05 03:48:13;;;;;;;0.47;0.40;;;;;;;5.43;90.21;95023.56;5036594;28;20197;-68
2021/12/05 03:50:42;;;;;;;0.70;0.60;;;;;;;5.19;89.79;95024.53;5036725;28;20224;-69
2021/12/05 03:53:09;;;;;;;1.40;1.30;;;;;;;5.28;90.16;95020.88;5035812;28;20479;-69
2021/12/05 03:55:39;;;;;;;1.80;0.67;;;;;;;5.43;89.20;95021.75;5037121;28;20204;-69
2021/12/05 03:58:07;;;;;;;0.40;0.40;;;;;;;5.36;89.84;95023.44;5036934;28;20224;-69
2021/12/05 04:00:39;;;;;;;0.60;0.60;;;;;;;5.40;90.56;95023.88;5036449;28;20809;-69
2021/12/05 04:03:08;;;;;;;0.63;0.63;;;;;;;5.48;88.87;95024.66;5036140;28;20211;-69
2021/12/05 04:05:35;;;;;;;0.40;0.40;;;;;;;5.12;90.36;95025.41;5036959;28;20201;-69
2021/12/05 04:08:02;;;;;;;0.90;0.90;;;;;;;5.31;90.03;95032.78;5035971;28;20684;-69
2021/12/05 04:10:30;;;;;;;0.40;0.40;;;;;;;5.34;89.79;95033.25;5036194;28;20394;-69
2021/12/05 04:12:58;;;;;;;0.43;0.43;;;;;;;5.32;89.44;95032.63;5036631;28;20741;-69
2021/12/05 04:15:25;;;;;;;0.53;0.53;;;;;;;5.20;89.79;95026.16;5036701;28;20197;-69
2021/12/05 04:17:53;;;;;;;0.30;0.30;;;;;;;5.40;90.08;95029.94;5035491;28;20221;-69
2021/12/05 04:20:21;;;;;;;0.30;0.30;;;;;;;5.42;89.57;95022.72;5036078;28;20224;-68
2021/12/05 04:22:49;;;;;;;0.40;0.40;;;;;;;5.35;89.31;95021.81;5035717;28;20205;-68
2021/12/05 04:25:19;;;;;;;0.30;0.30;;;;;;;5.37;89.87;95019.81;5036399;28;20208;-69
2021/12/05 04:27:48;;;;;;;0.60;0.60;;;;;;;5.33;89.79;95028.19;5036093;28;20208;-68
2021/12/05 04:30:18;;;;;;;0.40;0.40;;;;;;;5.52;89.50;95025.91;5036401;28;20228;-68
2021/12/05 04:32:45;;;;;;;0.60;0.60;;;;;;;5.35;89.35;95034.06;5035845;28;20736;-68
2021/12/05 04:35:13;;;;;;;0.77;0.77;;;;;;;5.28;89.68;95031.31;5036066;28;20212;-68
2021/12/05 04:37:40;;;;;;;0.70;0.70;;;;;;;5.22;89.55;95026.81;5035686;28;20224;-68
2021/12/05 04:40:08;;;;;;;8.93;0.77;;;;;;;5.38;89.34;95029.28;5036140;28;20228;-68
2021/12/05 04:42:35;;;;;;;0.40;0.40;;;;;;;5.05;89.60;95017.47;5035283;28;20563;-69
2021/12/05 04:45:01;;;;;;;0.60;0.60;;;;;;;5.38;88.92;95018.84;5033012;28;20196;-69
2021/12/05 04:47:28;;;;;;;0.37;0.33;;;;;;;5.20;89.31;95007.88;5036147;28;20200;-69
2021/12/05 04:49:56;;;;;;;0.60;0.60;;;;;;;5.26;89.46;95011.63;5035903;28;20419;-68
2021/12/05 04:52:24;;;;;;;0.70;0.70;;;;;;;5.44;89.55;95018.94;5035826;28;20205;-69
2021/12/05 04:54:51;;;;;;;0.50;0.50;;;;;;;5.33;88.82;95015.13;5035765;28;20576;-69
2021/12/05 04:57:17;;;;;;;1.30;0.73;;;;;;;5.10;88.92;95009.91;5036297;28;20458;-69
2021/12/05 04:59:48;;;;;;;0.70;0.70;;;;;;;5.37;88.11;95011.19;5035898;28;20208;-69
2021/12/05 05:02:15;;;;;;;0.33;0.33;;;;;;;5.34;88.46;95004.50;5035091;28;20582;-69
2021/12/05 05:04:45;;;;;;;0.60;0.60;;;;;;;5.29;88.61;95006.03;5036200;28;20231;-69
2021/12/05 05:07:18;;;;;;;0.83;0.83;;;;;;;5.52;88.06;95005.84;5035657;28;20209;-69
2021/12/05 05:09:50;;;;;;;1.40;0.70;;;;;;;5.70;88.48;95011.56;5035453;28;20201;-69
2021/12/05 05:12:17;;;;;;;2.40;0.80;;;;;;;5.45;88.08;95011.94;5035560;28;20209;-69
2021/12/05 05:14:44;;;;;;;1.10;0.53;;;;;;;5.63;87.94;95015.06;5035121;28;20208;-69
2021/12/05 05:17:10;;;;;;;0.97;0.97;;;;;;;5.10;88.61;95020.34;5035690;28;20197;-69
2021/12/05 05:19:40;;;;;;;0.90;0.70;;;;;;;5.39;88.00;95014.44;5036368;28;20201;-69
2021/12/05 05:22:17;;;;;;;1.10;0.77;;;;;;;5.49;87.39;95011.41;5035420;28;20329;-69
2021/12/05 05:27:51;;;;;;;0.30;0.30;;;;;;;5.33;87.95;95008.09;5030220;28;20196;-69
2021/12/05 05:30:36;;;;;;;0.70;0.70;;;;;;;5.54;87.80;95010.88;5035580;28;20224;-69
2021/12/05 05:44:33;;;;;;;0.47;0.47;;;;;;;5.31;88.74;95010.09;5038523;28;20265;-69
2021/12/05 05:47:05;;;;;;;1.40;1.30;;;;;;;5.36;87.85;95002.56;5036336;28;20228;-68
2021/12/05 05:49:48;;;;;;;4.07;1.53;;;;;;;5.39;88.10;95004.00;5038692;28;20201;-68
2021/12/05 05:52:16;;;;;;;0.97;0.97;;;;;;;5.58;87.82;94999.09;5038635;28;20211;-69
2021/12/05 05:54:46;;;;;;;0.70;0.70;;;;;;;5.33;87.47;94991.63;5039371;28;20212;-69
2021/12/05 05:57:20;;;;;;;2.10;0.77;;;;;;;5.54;87.56;94996.00;5038759;28;20300;-69
2021/12/05 05:59:53;;;;;;;1.27;1.17;;;;;;;5.30;87.62;95011.06;5038854;28;20279;-69
2021/12/05 06:05:05;;;;;;;0.47;0.47;;;;;;;5.35;88.40;95002.72;5038542;28;20629;-69
2021/12/05 06:07:33;;;;;;;0.40;0.40;;;;;;;5.14;88.26;95006.00;5038961;28;20197;-69
2021/12/05 06:09:59;;;;;;;0.97;0.63;;;;;;;4.88;88.86;95002.88;5038650;28;20231;-68
2021/12/05 06:12:27;;;;;;;1.00;0.90;;;;;;;5.44;87.75;95010.31;5037656;28;20877;-68
2021/12/05 06:14:54;;;;;;;0.50;0.50;;;;;;;5.27;87.37;95008.00;5038689;28;20609;-69
2021/12/05 06:17:20;;;;;;;13.93;1.33;;;;;;;5.25;87.30;95010.78;5038741;28;20552;-69
2021/12/05 06:19:47;;;;;;;0.67;0.67;;;;;;;4.82;89.07;94998.38;5038494;28;20213;-68
2021/12/05 06:22:13;;;;;;;0.33;0.33;;;;;;;4.91;89.58;95007.78;5037860;28;20208;-69
2021/12/05 06:24:40;;;;;;;0.80;0.80;;;;;;;4.68;89.87;95006.09;5038352;28;20288;-69
2021/12/05 06:27:06;;;;;;;0.40;0.40;;;;;;;4.86;89.56;95004.03;5038336;28;20237;-69
2021/12/05 06:29:38;;;;;;;3.57;1.30;;;;;;;5.18;89.37;95001.22;5037664;28;20677;-69
2021/12/05 06:32:33;;;;;;;0.73;0.67;;;;;;;4.65;90.20;95005.66;5038966;28;20342;-67
2021/12/05 06:37:53;;;;;;;8.23;1.37;;;;;;;4.68;89.29;95005.28;5038284;28;20300;-69
2021/12/05 06:40:37;;;;;;;3.57;1.17;;;;;;;4.77;90.01;95005.06;5038387;28;20787;-68
2021/12/05 06:43:07;;;;;;;0.50;0.50;;;;;;;4.84;89.34;95006.81;5037437;28;20205;-69
2021/12/05 06:48:18;;;;;;;1.70;1.03;;;;;;;5.00;89.09;95011.13;5037940;28;20250;-68
2021/12/05 06:50:45;;;;;;;9.73;1.30;;;;;;;4.80;89.48;95009.97;5038216;28;20588;-69
2021/12/05 06:53:11;;;;;;;1.17;0.67;;;;;;;5.08;88.69;95014.50;5036567;28;20824;-68
2021/12/05 06:55:38;;;;;;;0.60;0.60;;;;;;;4.82;89.22;95019.25;5037999;28;20239;-69
2021/12/05 06:58:05;;;;;;;0.43;0.43;;;;;;;4.57;90.08;95029.13;5037512;28;20225;-69
2021/12/05 07:00:32;;;;;;;0.30;0.30;;;;;;;4.56;90.40;95028.34;5037327;28;20737;-69
2021/12/05 07:03:00;;;;;;;0.80;0.80;;;;;;;4.91;90.07;95031.25;5036910;28;20202;-69
2021/12/05 07:08:15;;;;;;;1.03;0.70;;;;;;;5.11;88.46;95035.03;5033422;28;20208;-68
2021/12/05 07:10:49;;;;;;;10.77;1.33;;;;;;;5.29;88.27;95038.16;5038088;28;20681;-67
2021/12/05 07:16:07;;;;;;;3.03;1.97;;;;;;;5.30;87.72;95049.44;5037228;28;20704;-68
2021/12/05 07:18:42;;;;;;;3.70;1.70;;;;;;;5.49;87.42;95045.38;5037105;28;20217;-68
2021/12/05 07:21:25;;;;;;;1.43;0.93;;;;;;;5.22;87.46;95050.31;5038223;28;20315;-68
2021/12/05 07:24:02;;;;;;;1.87;1.43;;;;;;;5.27;87.82;95061.06;5037391;28;20201;-68
2021/12/05 07:26:43;;;;;;;3.80;1.80;;;;;;;5.25;87.76;95057.78;5038059;28;20242;-68
2021/12/05 07:40:28;;;;;;;5.53;2.93;;;;;;;5.49;87.07;95057.63;5037013;28;20243;-68
2021/12/05 07:42:56;;;;;;;3.03;2.23;;;;;;;5.49;87.63;95060.25;5037196;28;20205;-68
2021/12/05 07:45:32;;;;;;;1.87;1.37;;;;;;;5.46;88.46;95050.16;5034350;28;20371;-68
2021/12/05 07:48:04;;;;;;;5.57;2.23;;;;;;;5.30;87.43;95063.31;5036760;28;20695;-68
2021/12/05 07:50:41;;;;;;;3.53;1.90;;;;;;;5.35;88.67;95053.16;5037372;28;20705;-68
2021/12/05 07:53:15;;;;;;;0.67;0.50;;;;;;;5.17;88.03;95052.63;5032321;28;20208;-69
2021/12/05 07:55:45;;;;;;;2.73;1.03;;;;;;;4.95;88.71;95056.03;5035731;28;21229;-68
2021/12/05 07:58:14;;;;;;;0.80;0.80;;;;;;;5.30;87.51;95055.47;5036048;28;20217;-68
2021/12/05 08:00:53;;;;;;;8.10;2.33;;;;;;;5.39;87.47;95043.97;5035220;28;20986;-68
2021/12/05 08:14:33;;;;;;;4.23;2.60;;;;;;;5.54;86.32;95042.25;5035484;28;20285;-68
2021/12/05 08:17:01;;;;;;;2.20;1.53;;;;;;;5.72;86.06;95048.78;5036440;28;20200;-68
2021/12/05 08:19:27;;;;;;;3.07;1.97;;;;;;;5.56;86.18;95045.47;5035865;28;20224;-68
2021/12/05 08:21:55;;;;;;;2.57;1.90;;;;;;;6.01;86.27;95045.44;5035660;28;20225;-68
2021/12/05 08:24:23;;;;;;;0.87;0.83;;;;;;;5.91;85.60;95048.31;5034928;28;20215;-68
2021/12/05 08:26:51;;;;;;;2.83;1.30;;;;;;;5.89;85.78;95049.47;5036092;28;20262;-67
2021/12/05 08:29:23;;;;;;;1.40;1.27;;;;;;;6.01;86.00;95041.03;5036134;28;20197;-68
2021/12/05 08:32:09;;;;;;;5.13;0.97;;;;;;;5.86;85.63;95042.00;5035322;28;20217;-68
2021/12/05 09:24:39;;;;;;;1.30;1.20;;;;;;;5.82;84.17;95046.75;5036973;28;20213;-68
2021/12/05 09:30:05;;;;;;;1.07;0.80;;;;;;;5.92;84.57;95038.66;5038983;28;20193;-68
2021/12/05 10:03:10;;;;;;;0.53;0.53;;;;;;;5.58;85.81;95022.63;5036200;28;20240;-68
2021/12/05 10:08:41;;;;;;;0.30;0.30;;;;;;;5.57;85.87;95028.81;5038256;28;20266;-68
2021/12/05 10:11:25;;;;;;;2.40;0.90;;;;;;;5.72;85.45;95027.06;5038014;28;20240;-68
2021/12/05 10:14:11;;;;;;;2.33;0.73;;;;;;;5.88;84.39;95013.88;5037734;28;20208;-68
2021/12/05 10:17:10;;;;;;;0.70;0.70;;;;;;;6.33;84.07;95017.16;5036486;28;20208;-68
2021/12/05 10:20:14;;;;;;;0.73;0.73;;;;;;;6.36;83.04;95019.41;5037965;28;20228;-68
2021/12/05 10:36:16;;;;;;;0.60;0.60;;;;;;;7.07;81.30;95015.06;5038496;28;20201;-68
2021/12/05 10:38:47;;;;;;;2.03;0.87;;;;;;;6.44;81.08;95017.50;5037986;28;20330;-68
2021/12/05 10:44:04;;;;;;;1.30;1.20;;;;;;;6.36;81.21;95007.13;5037144;28;20215;-67
2021/12/05 10:46:31;;;;;;;0.60;0.60;;;;;;;6.32;81.16;95007.69;5035315;28;20468;-68
2021/12/05 10:49:03;;;;;;;1.13;1.03;;;;;;;6.53;80.93;95005.13;5037325;28;20217;-68
2021/12/05 10:51:32;;;;;;;4.77;1.77;;;;;;;6.78;79.92;94999.41;5037755;28;20225;-68
2021/12/05 10:53:59;;;;;;;2.53;1.10;;;;;;;6.67;80.59;94999.91;5036737;28;20463;-68
2021/12/05 10:56:28;;;;;;;1.00;0.90;;;;;;;6.55;80.68;95000.53;5036749;28;20252;-68
2021/12/05 10:58:58;;;;;;;2.03;0.60;;;;;;;6.75;80.69;94997.97;5036436;28;20232;-66
2021/12/05 11:01:29;;;;;;;2.17;1.20;;;;;;;6.52;79.61;94999.09;5037169;28;20619;-66
2021/12/05 11:04:00;;;;;;;0.70;0.70;;;;;;;6.66;80.24;95000.88;5035947;28;20331;-68
2021/12/05 11:06:39;;;;;;;1.07;0.53;;;;;;;6.44;80.41;94999.19;5037107;28;20197;-68
2021/12/05 11:09:13;;;;;;;1.03;0.50;;;;;;;6.62;79.78;95004.88;5036116;28;20668;-67
2021/12/05 11:11:42;;;;;;;0.80;0.80;;;;;;;6.40;80.84;94995.31;5036734;28;20236;-66
2021/12/05 11:14:12;;;;;;;1.90;1.53;;;;;;;6.67;82.62;94992.03;5035358;28;20418;-66
2021/12/05 11:16:48;;;;;;;0.70;0.70;;;;;;;6.80;79.60;94997.44;5036210;28;20201;-66
2021/12/05 11:19:25;;;;;;;0.70;0.70;;;;;;;6.84;78.85;94990.81;5036415;28;20498;-66
2021/12/05 11:21:56;;;;;;;0.90;0.77;;;;;;;6.63;80.30;94992.56;5035971;28;20220;-69
2021/12/05 11:24:26;;;;;;;3.10;1.03;;;;;;;6.85;79.37;94993.25;5035531;28;20510;-68
2021/12/05 11:27:12;;;;;;;0.60;0.60;;;;;;;7.03;77.97;94998.09;5035874;28;20896;-68
2021/12/05 11:29:49;;;;;;;0.87;0.80;;;;;;;6.95;78.56;94998.19;5035620;28;20194;-68
2021/12/05 11:32:19;;;;;;;5.77;1.20;;;;;;;7.05;78.66;94998.69;5034854;28;20204;-69
2021/12/05 11:34:48;;;;;;;2.20;0.80;;;;;;;6.84;78.11;94994.25;5036857;28;20197;-66
2021/12/05 11:37:15;;;;;;;0.87;0.73;;;;;;;6.49;79.53;94989.00;5035835;28;20592;-66
2021/12/05 11:39:41;;;;;;;1.00;1.00;;;;;;;6.89;78.87;94991.09;5035170;28;20640;-69
2021/12/05 11:42:17;;;;;;;0.83;0.53;;;;;;;7.40;78.47;94996.03;5035984;28;20209;-69
2021/12/05 11:44:46;;;;;;;0.60;0.60;;;;;;;7.25;78.42;94992.66;5033979;28;20219;-68
2021/12/05 11:47:15;;;;;;;0.97;0.53;;;;;;;7.66;78.02;94994.47;5035162;28;20213;-66
2021/12/05 11:49:42;;;;;;;0.47;0.47;;;;;;;7.25;76.18;94997.91;5035733;28;20605;-66
2021/12/05 11:52:11;;;;;;;0.50;0.43;;;;;;;7.27;75.69;94996.72;5033659;28;20205;-66
2021/12/05 11:54:40;;;;;;;0.60;0.53;;;;;;;7.40;75.78;94998.66;5035355;28;20585;-66
2021/12/05 11:57:11;;;;;;;0.97;0.73;;;;;;;7.42;75.16;94994.88;5035921;28;20205;-67
2021/12/05 11:59:44;;;;;;;0.63;0.63;;;;;;;7.28;76.32;95003.59;5035414;28;20260;-66
2021/12/05 12:02:14;;;;;;;0.97;0.97;;;;;;;7.39;75.51;94989.97;5034942;28;20473;-66
2021/12/05 12:04:46;;;;;;;4.77;0.90;;;;;;;7.57;75.38;94987.72;5035966;28;21099;-66
2021/12/05 12:07:20;;;;;;;1.27;1.17;;;;;;;7.67;74.93;94987.41;5035438;28;20205;-66
2021/12/05 12:09:49;;;;;;;1.50;0.80;;;;;;;7.51;75.35;94987.66;5035286;28;20204;-66
2021/12/05 12:12:17;;;;;;;0.83;0.70;;;;;;;7.81;75.07;94983.91;5035814;28;20208;-66
2021/12/05 12:14:44;;;;;;;0.97;0.70;;;;;;;7.30;74.91;94979.81;5036359;28;20197;-66
2021/12/05 12:17:16;;;;;;;0.67;0.67;;;;;;;7.57;76.23;94976.44;5035978;28;20201;-67
2021/12/05 12:19:44;;;;;;;0.50;0.50;;;;;;;7.24;74.81;94980.56;5035573;28;20247;-66
2021/12/05 12:22:12;;;;;;;0.33;0.33;;;;;;;7.18;74.40;94985.72;5035102;28;20202;-66
2021/12/05 12:24:40;;;;;;;0.70;0.70;;;;;;;7.41;74.72;94982.75;5035947;28;20218;-66
2021/12/05 12:27:08;;;;;;;0.83;0.80;;;;;;;7.36;74.73;94985.13;5036693;28;20290;-66
2021/12/05 12:29:37;;;;;;;0.40;0.40;;;;;;;7.94;73.86;94982.16;5036270;28;20244;-67
2021/12/05 12:32:12;;;;;;;0.50;0.50;;;;;;;7.75;73.37;94989.88;5036229;28;20232;-66
2021/12/05 12:34:40;;;;;;;0.30;0.30;;;;;;;7.36;74.82;94990.34;5035472;28;20279;-67
2021/12/05 12:37:10;;;;;;;1.77;1.57;;;;;;;7.29;75.53;94994.75;5035676;28;20695;-70
2021/12/05 12:39:41;;;;;;;0.67;0.67;;;;;;;7.43;75.07;94991.25;5036162;28;20228;-68
2021/12/05 12:42:19;;;;;;;2.70;1.33;;;;;;;7.66;74.55;94988.41;5034084;28;20205;-68
2021/12/05 12:45:15;;;;;;;0.40;0.40;;;;;;;7.65;73.24;94995.47;5034335;28;20661;-67
2021/12/05 12:47:44;;;;;;;1.87;1.00;;;;;;;7.31;73.92;95000.59;5022921;28;20208;-67
2021/12/05 12:50:34;;;;;;;6.30;1.40;;;;;;;7.25;73.33;95004.97;5035943;28;20674;-67
2021/12/05 12:53:14;;;;;;;8.13;1.33;;;;;;;7.18;73.87;95001.44;5036182;28;20271;-67
2021/12/05 12:55:51;;;;;;;1.40;1.00;;;;;;;7.31;73.88;95000.59;5035089;28;20292;-67
2021/12/05 12:58:51;;;;;;;0.63;0.60;;;;;;;7.34;72.56;95005.47;5033644;28;20220;-68
2021/12/05 13:01:35;;;;;;;0.77;0.77;;;;;;;7.61;73.22;94999.47;5025481;28;20221;-67
2021/12/05 13:09:58;;;;;;;0.40;0.40;;;;;;;7.20;74.67;95002.09;5035549;28;20216;-67
2021/12/05 13:10:19;;;;;;;0.77;0.70;;;;;;;7.83;73.84;95002.84;5035883;28;20944;-67
2021/12/05 13:12:54;;;;;;;0.73;0.73;;;;;;;7.90;73.77;95001.91;5035077;28;20204;-68
2021/12/05 13:15:28;;;;;;;2.17;1.30;;;;;;;7.93;74.01;95001.53;5034944;28;20205;-68
2021/12/05 13:17:58;;;;;;;0.40;0.40;;;;;;;7.77;72.16;94998.38;5034902;28;20205;-67
2021/12/05 13:20:29;;;;;;;6.50;1.03;;;;;;;7.79;73.96;94999.81;5034641;28;20231;-67
2021/12/05 13:23:04;;;;;;;1.63;1.03;;;;;;;8.03;71.29;95004.63;5035056;28;20201;-68
2021/12/05 13:25:33;;;;;;;2.27;1.10;;;;;;;7.54;72.79;95001.22;5036223;28;20215;-68
2021/12/05 13:28:29;;;;;;;0.77;0.77;;;;;;;7.93;70.96;94998.94;5035395;28;20237;-68
2021/12/05 13:30:55;;;;;;;2.47;1.30;;;;;;;7.74;70.44;94998.75;5034108;28;20217;-68
2021/12/05 13:33:24;;;;;;;1.07;0.60;;;;;;;8.15;71.75;95003.16;5035204;28;20216;-68
2021/12/05 13:35:57;;;;;;;3.60;2.07;;;;;;;7.63;71.67;95002.69;5035752;28;20217;-68
2021/12/05 13:38:39;;;;;;;6.13;1.10;;;;;;;8.19;70.45;94993.88;5035313;28;20201;-68
2021/12/05 13:41:15;;;;;;;0.50;0.50;;;;;;;8.34;70.50;94992.75;5035401;28;20236;-67
2021/12/05 13:43:55;;;;;;;0.80;0.57;;;;;;;8.11;70.74;95004.50;5034760;28;21105;-68
2021/12/05 13:46:37;;;;;;;9.23;1.17;;;;;;;8.48;69.13;94998.88;5032972;28;20220;-68
2021/12/05 13:49:35;;;;;;;0.50;0.50;;;;;;;8.58;68.89;94993.09;5033905;28;20205;-68
2021/12/05 13:52:30;;;;;;;0.50;0.50;;;;;;;8.28;69.22;94985.66;5035689;28;20279;-68
2021/12/05 13:55:30;;;;;;;1.10;0.70;;;;;;;8.12;70.05;94983.31;5037030;28;20241;-68
2021/12/05 13:58:15;;;;;;;1.40;1.23;;;;;;;7.62;70.70;94995.81;5038251;28;20780;-67
2021/12/05 14:00:46;;;;;;;2.20;0.90;;;;;;;7.95;70.52;94996.91;5037417;28;20221;-68
2021/12/05 14:03:13;;;;;;;2.30;1.33;;;;;;;7.66;70.16;95001.50;5037752;28;20224;-67
2021/12/05 14:05:47;;;;;;;0.70;0.70;;;;;;;7.92;69.51;94994.66;5038064;28;20585;-68
2021/12/05 14:08:14;;;;;;;2.60;1.50;;;;;;;7.71;70.00;95005.19;5038713;28;20209;-67
2021/12/05 14:10:44;;;;;;;0.60;0.60;;;;;;;7.87;70.33;95002.28;5039086;28;20221;-68
2021/12/05 14:13:11;;;;;;;1.30;0.87;;;;;;;7.82;70.40;95001.25;5037918;28;20985;-68
2021/12/05 14:15:38;;;;;;;1.17;0.57;;;;;;;7.88;70.53;95009.16;5038761;28;20225;-68
2021/12/05 14:18:06;;;;;;;1.13;1.00;;;;;;;7.90;70.97;95015.03;5036327;28;20773;-67
2021/12/05 14:20:32;;;;;;;0.80;0.80;;;;;;;7.68;69.80;95013.44;5037300;28;20225;-68
2021/12/05 14:23:04;;;;;;;0.70;0.63;;;;;;;7.48;69.98;95016.88;5037533;28;20209;-67
2021/12/05 14:25:32;;;;;;;1.63;1.30;;;;;;;7.61;70.19;95009.97;5037910;28;20220;-67
2021/12/05 14:28:01;;;;;;;3.97;0.90;;;;;;;7.75;69.79;95016.09;5035879;28;20247;-67
2021/12/05 14:30:34;;;;;;;1.93;1.10;;;;;;;7.82;71.04;95020.41;5038427;28;20217;-67
2021/12/05 14:33:02;;;;;;;14.17;1.20;;;;;;;7.48;71.64;95015.06;5037487;28;20201;-67
2021/12/05 14:35:33;;;;;;;1.33;0.93;;;;;;;7.66;71.41;95018.06;5037345;28;20673;-67
2021/12/05 14:38:02;;;;;;;1.43;1.20;;;;;;;7.61;72.09;95022.22;5035270;28;20229;-67
2021/12/05 14:40:31;;;;;;;2.77;1.67;;;;;;;7.53;71.85;95017.13;5034130;28;20363;-66
2021/12/05 14:43:04;;;;;;;3.10;1.03;;;;;;;7.52;72.36;95021.56;5033104;28;20206;-67
2021/12/05 14:45:32;;;;;;;6.50;2.77;;;;;;;7.30;73.31;95019.91;5031896;28;20723;-67
2021/12/05 14:48:02;;;;;;;2.47;1.80;;;;;;;7.24;73.54;95026.91;5035331;28;20287;-67
2021/12/05 14:50:34;;;;;;;4.90;2.00;;;;;;;7.12;74.83;95023.16;5034516;28;20650;-67
2021/12/05 14:53:03;;;;;;;2.60;1.93;;;;;;;7.04;75.32;95031.13;5034752;28;20205;-66
2021/12/05 14:55:32;;;;;;;0.50;0.50;;;;;;;6.89;75.10;95032.97;5034769;28;20251;-67
2021/12/05 14:58:00;;;;;;;3.23;0.80;;;;;;;7.61;91.53;95033.56;5036144;28;20208;-67
2021/12/05 15:00:31;;;;;;;2.53;1.53;;;;;;;9.31;87.63;95027.31;5034677;28;20221;-67
2021/12/05 15:03:01;;;;;;;6.43;3.50;;;;;;;8.29;72.60;95031.09;5034083;28;20201;-67
2021/12/05 15:05:27;;;;;;;4.40;2.40;;;;;;;7.48;74.02;95040.47;5034938;28;20197;-66
2021/12/05 15:08:02;;;;;;;7.40;2.10;;;;;;;7.25;75.50;95041.66;5034008;28;20204;-67
2021/12/05 15:10:28;;;;;;;2.37;1.53;;;;;;;6.68;76.25;95048.59;5035421;28;20225;-66
2021/12/05 15:12:55;;;;;;;3.40;1.83;;;;;;;6.29;78.14;95055.94;5034887;28;20205;-67
2021/12/05 15:15:24;;;;;;;1.63;1.47;;;;;;;6.04;79.58;95063.41;5034514;28;20205;-67
2021/12/05 15:17:51;;;;;;;4.17;1.67;;;;;;;5.37;81.79;95066.84;5034621;28;20205;-66
2021/12/05 15:20:20;;;;;;;1.27;1.10;;;;;;;5.58;82.08;95074.88;5035481;28;20275;-67
2021/12/05 15:22:50;;;;;;;1.47;1.37;;;;;;;5.67;81.85;95079.84;5034454;28;20205;-67
2021/12/05 15:25:20;;;;;;;4.10;1.83;;;;;;;5.56;82.78;95071.59;5034526;28;20228;-67
2021/12/05 15:27:48;;;;;;;8.13;2.40;;;;;;;5.63;81.55;95075.16;5035471;28;20232;-67
2021/12/05 15:30:18;;;;;;;4.90;2.00;;;;;;;5.55;81.85;95080.44;5034578;28;20239;-66
2021/12/05 15:32:46;;;;;;;14.13;4.17;;;;;;;5.15;83.16;95082.50;5033705;28;20202;-66
2021/12/05 15:35:16;;;;;;;1.93;1.73;;;;;;;5.01;84.01;95085.84;5034390;28;20213;-67
2021/12/05 15:37:47;;;;;;;2.80;2.13;;;;;;;4.81;85.26;95079.41;5034046;28;20964;-66
2021/12/05 15:40:14;;;;;;;1.80;1.30;;;;;;;4.65;85.34;95089.13;5034727;28;20712;-66
2021/12/05 15:42:42;;;;;;;14.23;4.33;;;;;;;4.93;85.32;95086.69;5034218;28;20212;-67
2021/12/05 15:45:11;;;;;;;10.70;3.37;;;;;;;4.91;85.32;95086.06;5032750;28;20197;-67
2021/12/05 15:47:39;;;;;;;4.20;2.87;;;;;;;5.16;84.64;95087.53;5034712;28;20563;-67
2021/12/05 15:50:08;;;;;;;9.43;3.03;;;;;;;5.39;83.67;95091.00;5034602;28;20224;-66
2021/12/05 15:52:38;;;;;;;2.13;1.90;;;;;;;5.49;83.34;95100.22;5034053;28;20275;-66
2021/12/05 15:55:09;;;;;;;1.80;1.63;;;;;;;5.63;82.67;95099.47;5035338;28;20202;-67
2021/12/05 15:57:39;;;;;;;2.60;1.07;;;;;;;5.57;82.80;95094.94;5033844;28;20200;-67
2021/12/05 16:00:13;;;;;;;1.00;0.87;;;;;;;5.64;82.75;95101.09;5035385;28;20229;-66
2021/12/05 16:02:42;;;;;;;0.50;0.50;;;;;;;5.31;82.43;95103.28;5035790;28;20222;-67
2021/12/05 16:05:20;;;;;;;1.17;1.07;;;;;;;5.68;82.28;95102.38;5034909;28;20197;-66
2021/12/05 16:07:47;;;;;;;0.50;0.50;;;;;;;5.48;82.52;95108.25;5033999;28;20750;-67
2021/12/05 16:10:18;;;;;;;3.30;2.43;;;;;;;5.64;82.61;95092.47;5033677;28;20225;-67
2021/12/05 16:12:46;;;;;;;6.43;3.43;;;;;;;5.49;83.06;95100.22;5033975;28;20208;-67
2021/12/05 16:15:17;;;;;;;6.43;3.63;;;;;;;5.61;83.07;95101.47;5034281;28;20300;-67